Kezdőlap
METAR-TAF:

METAR-TAF

Repülőterek :

Csungking, Kína

földrajzi szélesség: 29-31N, földrajzi hosszúság: 106-29E, magasság: 351 m

Jelenlegi meteorológiai megfigyelések

A jelentés 39 perccel ezelõtt készült, 22:00 UTC
Északnyugati szél 4 kt
Hőmérséklet 15°C
Páratartalom 77%
Légköri nyomás 1014 hPa
Látótávolság: 7000 m
Kevés felhő 3000 lábon
Borult 4600 lábon

METAR: ZUCK 152200Z 31002MPS 7000 FEW030 OVC046 15/11 Q1014 NOSIG

Idő: 06:39 (22:39 UTC)

Előrejelzés

A jelentés 7 órával és 31 perccel ezelõtt készült, 15:08 UTC
Az előrejelzés 15-én 18 óra UTC és 16-én 18 óra UTC között érvényes
Nyugat-északnyugati szél 4 kt
Látótávolság: 6000 m
Szórványos felhőzet 5000 lábon

TAF: ZUCK 151508Z 1518/1618 29002MPS 6000 SCT050 TX18/1607Z TN13/1521Z

Meteorológiai megfigyelések és előrejelzések több, mint 4000 repülőtéren (METAR és TAF jelentéseket).

A térképen piros és sárga pontok jelzik az elérhető meteorológiai állomásokat.

Mozgassa az egeret a pont fölött, hogy megjelenjen az állomás neve.

Azután kattintson az időjárási megfigyelések és előrejelzések megtekintéséhez.

A térkép megváltoztatása: kattintson a fekete keresztel jelölt zöld gombra ráközelítéshez, a vonallal jelölt zöld gombra távolításhoz, vagy a zöld nyilakra a szomszédos térképek eléréséhez.


METAR-TAF: